Time;durP1;ratioP1;P1;durP2;ratioP2;P2;SDS_P1;SDS_P2;PMS_P1;PMS_P2;Temp;Humidity;BMP_temperature;BMP_pressure;BME280_temperature;BME280_humidity;BME280_pressure;Samples;Min_cycle;Max_cycle;Signal;HPM_P1;HPM_P2
2021/12/28 00:01:08;;;;;;;;;;;;;;;15.63;70.74;97559.94;6301644;22;19943;-96
2021/12/28 00:03:34;;;;;;;;;;;;;;;15.58;71.03;97568.50;6305296;22;19903;-96
2021/12/28 00:06:00;;;;;;;;;;;;;;;15.60;71.30;97557.69;6278410;22;19907;-96
2021/12/28 00:08:26;;;;;;;;;;;;;;;15.57;71.27;97555.47;6305654;22;19934;-96
2021/12/28 00:47:03;;;;;;;;;;;;;;;15.58;71.09;97605.53;6299230;22;19899;-89
2021/12/28 00:57:14;;;;;;;;;;;;;;;15.59;70.93;97616.91;6282037;22;19937;-96
2021/12/28 00:59:39;;;;;;;;;;;;;;;15.56;70.84;97618.16;6305450;22;20349;-96
2021/12/28 01:02:05;;;;;;;;;;;;;;;15.53;71.11;97617.72;6305783;22;19951;-96
2021/12/28 01:04:31;;;;;;;;;;;;;;;15.38;71.06;97616.13;6305306;22;19891;-96
2021/12/28 01:06:56;;;;;;;;;;;;;;;15.41;71.23;97617.53;6307938;22;19895;-96
2021/12/28 01:12:03;;;;;;;;;;;;;;;15.18;71.50;97628.50;6293108;22;19899;-96
2021/12/28 01:19:49;;;;;;;;;;;;;;;15.29;71.35;97624.44;6265906;22;19899;-96
2021/12/28 01:22:20;;;;;;;;;;;;;;;15.35;70.90;97621.78;6264736;22;19926;-96
2021/12/28 01:24:45;;;;;;;;;;;;;;;15.31;70.88;97636.44;6337828;22;19950;-96
2021/12/28 01:27:10;;;;;;;;;;;;;;;15.40;70.65;97648.44;6337613;22;19911;-96
2021/12/28 01:29:36;;;;;;;;;;;;;;;15.31;70.48;97639.09;6337542;22;19943;-96
2021/12/28 01:32:01;;;;;;;;;;;;;;;15.15;71.00;97642.94;6336922;22;19911;-96
2021/12/28 01:34:27;;;;;;;34.57;23.03;;;;;;;15.03;70.32;97618.13;6337414;22;19895;-96
2021/12/28 01:36:54;;;;;;;;;;;;;;;15.12;70.67;97637.22;6278084;22;20723;-96
2021/12/28 01:39:19;;;;;;;;;;;;;;;14.90;70.05;97634.75;6305996;22;19895;-96
2021/12/28 01:41:44;;;;;;;;;;;;;;;15.04;70.27;97633.75;6306007;22;19911;-96
2021/12/28 01:44:11;;;;;;;;;;;;;;;14.84;70.60;97622.34;6306536;22;19911;-96
2021/12/28 01:46:36;;;;;;;;;;;;;;;14.75;70.28;97631.44;6306016;22;19930;-96
2021/12/28 01:54:12;;;;;;;;;;;;;;;14.77;69.64;97632.06;6295266;22;19925;-96
2021/12/28 01:56:40;;;;;;;;;;;;;;;14.74;69.50;97635.13;6302392;22;19908;-96
2021/12/28 01:59:06;;;;;;;;;;;;;;;14.56;70.22;97639.13;6303204;22;19918;-96
2021/12/28 02:01:32;;;;;;;;;;;;;;;14.48;70.61;97641.91;6301004;22;19943;-95
2021/12/28 02:03:58;;;;;;;;;;;;;;;14.56;70.66;97639.13;6302296;22;19913;-96
2021/12/28 02:06:26;;;;;;;;;;;;;;;14.48;70.72;97649.81;6304191;22;20234;-96
2021/12/28 02:08:52;;;;;;;;;;;;;;;14.43;71.13;97666.22;6303967;22;19907;-96
2021/12/28 02:11:18;;;;;;;45.30;26.30;;;;;;;14.40;70.34;97644.72;6305235;22;19930;-96
2021/12/28 02:13:43;;;;;;;;;;;;;;;14.49;71.01;97672.56;6304884;22;19999;-96
2021/12/28 02:16:09;;;;;;;72.80;30.57;;;;;;;14.57;70.98;97671.59;6304166;22;20352;-96
2021/12/28 02:18:35;;;;;;;46.90;25.40;;;;;;;14.60;70.55;97653.56;6305565;22;20043;-96
2021/12/28 02:21:04;;;;;;;67.90;29.90;;;;;;;14.75;69.97;97642.00;6305425;22;20043;-96
2021/12/28 02:23:29;;;;;;;;;;;;;;;14.67;70.76;97657.03;6306073;22;19993;-96
2021/12/28 02:25:54;;;;;;;;;;;;;;;14.75;70.38;97657.84;6278224;22;19907;-96
2021/12/28 02:28:20;;;;;;;;;;;;;;;14.80;70.07;97666.00;6305520;22;19915;-96
2021/12/28 02:30:48;;;;;;;;;;;;;;;14.76;70.54;97667.44;6305748;22;19923;-96
2021/12/28 02:33:14;;;;;;;;;;;;;;;14.74;70.54;97677.38;6278666;22;19902;-96
2021/12/28 02:35:39;;;;;;;;;;;;;;;14.63;71.04;97676.94;6303622;22;19912;-96
2021/12/28 02:38:05;;;;;;;;;;;;;;;14.89;70.22;97672.75;6277327;22;19911;-96
2021/12/28 02:40:32;;;;;;;;;;;;;;;14.56;71.02;97686.63;6303819;22;19919;-96
2021/12/28 02:43:00;;;;;;;;;;;;;;;14.50;71.61;97697.97;6276870;22;19918;-96
2021/12/28 02:45:29;;;;;;;;;;;;;;;14.73;70.87;97702.97;6301674;22;19911;-96
2021/12/28 02:47:55;;;;;;;;;;;;;;;14.37;72.47;97705.81;6301716;22;19903;-96
2021/12/28 02:50:23;;;;;;;;;;;;;;;14.18;73.21;97702.03;6302036;22;19895;-96
2021/12/28 02:55:25;;;;;;;;;;;;;;;14.45;72.64;97693.28;6300606;22;19915;-96
2021/12/28 02:57:52;;;;;;;;;;;;;;;14.72;71.78;97692.59;6277340;22;19922;-96
2021/12/28 03:00:36;;;;;;;;;;;;;;;14.78;71.52;97692.63;6304904;22;19922;-96
2021/12/28 03:03:09;;;;;;;;;;;;;;;14.85;71.09;97695.31;6304073;22;19923;-96
2021/12/28 03:05:34;;;;;;;;;;;;;;;14.71;71.64;97694.44;6278405;22;19919;-96
2021/12/28 03:08:00;;;;;;;;;;;;;;;14.62;72.14;97691.13;6302683;22;19947;-96
2021/12/28 03:10:25;;;;;;;;;;;;;;;14.73;71.69;97688.94;6303355;22;19915;-96
2021/12/28 03:12:51;;;;;;;;;;;;;;;14.67;72.02;97694.00;6304755;22;19915;-96
2021/12/28 03:15:16;;;;;;;;;;;;;;;14.79;71.53;97699.53;6304484;22;19919;-96
2021/12/28 03:17:41;;;;;;;;;;;;;;;14.82;71.19;97696.50;6305345;22;19903;-96
2021/12/28 03:20:12;;;;;;;;;;;;;;;14.72;71.71;97697.88;6296840;22;20013;-96
2021/12/28 03:22:37;;;;;;;;;;;;;;;14.82;71.41;97698.31;6307737;22;19915;-96
2021/12/28 03:45:47;;;;;;;;;;;;;;;13.39;76.67;97726.75;6266167;22;19930;-96
2021/12/28 03:50:53;;;;;;;95.50;38.30;;;;;;;13.96;73.50;97707.38;6271994;22;20477;-96
2021/12/28 03:53:20;;;;;;;34.25;22.05;;;;;;;13.27;76.07;97708.78;6277553;22;20067;-96
2021/12/28 04:00:51;;;;;;;;;;;;;;;13.53;75.45;97733.00;6306512;22;19915;-95
2021/12/28 04:24:03;;;;;;;45.17;24.63;;;;;;;13.84;74.91;97707.09;6251496;22;20037;-94
2021/12/28 04:42:02;;;;;;;;;;;;;;;13.97;75.24;97750.41;6259913;22;20000;-96
2021/12/28 04:44:28;;;;;;;;;;;;;;;13.82;75.56;97748.66;6303929;22;19915;-96
2021/12/28 04:46:53;;;;;;;;;;;;;;;14.07;74.17;97740.31;6304723;22;19928;-96
2021/12/28 04:54:29;;;;;;;;;;;;;;;14.47;72.74;97730.00;6267672;22;19915;-96
2021/12/28 04:56:54;;;;;;;;;;;;;;;14.13;73.39;97722.91;6301599;22;19967;-95
2021/12/28 04:59:20;;;;;;;;;;;;;;;13.76;74.36;97723.03;6303269;22;19891;-95
2021/12/28 05:01:45;;;;;;;;;;;;;;;13.67;75.49;97737.38;6277100;22;19963;-96
2021/12/28 05:04:11;;;;;;;;;;;;;;;14.28;73.40;97727.06;6300042;22;19887;-95
2021/12/28 05:06:36;;;;;;;;;;;;;;;14.43;72.40;97723.50;6301478;22;19907;-94
2021/12/28 05:09:07;;;;;;;;;;;;;;;14.29;72.78;97727.88;6299063;22;19934;-95
2021/12/28 05:11:33;;;;;;;;;;;;;;;14.75;71.13;97722.09;6299116;22;19933;-95
2021/12/28 05:13:59;;;;;;;;;;;;;;;14.72;71.23;97716.38;6300678;22;19907;-95
2021/12/28 05:16:28;;;;;;;;;;;;;;;14.77;71.03;97714.78;6300549;22;19909;-95
2021/12/28 05:18:54;;;;;;;;;;;;;;;14.77;71.17;97722.69;6299310;22;19891;-95
2021/12/28 05:21:19;;;;;;;;;;;;;;;14.74;70.81;97723.06;6299133;22;19982;-95
2021/12/28 05:23:44;;;;;;;;;;;;;;;14.74;71.14;97715.16;6298254;22;19911;-96
2021/12/28 05:26:10;;;;;;;;;;;;;;;14.56;71.47;97722.78;6299968;22;19950;-96
2021/12/28 05:28:35;;;;;;;;;;;;;;;14.71;71.34;97712.09;6300794;22;19907;-95
2021/12/28 05:31:01;;;;;;;;;;;;;;;14.70;70.76;97718.41;6302988;22;19898;-96
2021/12/28 05:33:26;;;;;;;;;;;;;;;14.65;71.21;97716.31;6302552;22;19933;-95
2021/12/28 05:35:51;;;;;;;;;;;;;;;14.66;71.28;97705.56;6301414;22;19915;-96
2021/12/28 05:38:17;;;;;;;;;;;;;;;14.60;71.04;97714.28;6300719;22;19914;-95
2021/12/28 05:43:20;;;;;;;;;;;;;;;14.64;71.06;97714.72;6296863;22;19951;-96
2021/12/28 05:45:46;;;;;;;;;;;;;;;14.43;71.76;97723.50;6306246;22;19903;-96
2021/12/28 05:48:11;;;;;;;;;;;;;;;14.20;72.48;97732.50;6305635;22;19963;-96
2021/12/28 05:50:37;;;;;;;;;;;;;;;13.56;74.18;97733.41;6303000;22;19895;-96
2021/12/28 05:53:03;;;;;;;;;;;;;;;13.75;73.97;97753.06;6285292;22;19925;-96
2021/12/28 05:55:29;;;;;;;;;;;;;;;13.31;74.23;97764.59;6299628;22;19908;-95
2021/12/28 05:57:54;;;;;;;;;;;;;;;13.28;74.14;97789.47;6291462;22;19897;-96
2021/12/28 06:00:20;;;;;;;;;;;;;;;13.37;73.62;97771.75;6291959;22;19907;-95
2021/12/28 06:02:45;;;;;;;;;;;;;;;12.95;74.09;97775.88;6294475;22;19958;-95
2021/12/28 06:05:11;;;;;;;;;;;;;;;12.88;74.44;97756.56;6298170;22;19908;-96
2021/12/28 06:07:36;;;;;;;;;;;;;;;13.09;73.39;97761.06;6290683;22;19907;-96
2021/12/28 06:10:02;;;;;;;;;;;;;;;13.19;73.17;97743.16;6297726;22;19900;-95
2021/12/28 06:12:28;;;;;;;;;;;;;;;13.15;72.98;97747.19;6275888;22;19895;-96
2021/12/28 06:14:53;;;;;;;;;;;;;;;12.91;73.10;97772.00;6303052;22;19917;-96
2021/12/28 06:17:19;;;;;;;;;;;;;;;12.93;72.46;97756.00;6302480;22;19907;-96
2021/12/28 06:19:45;;;;;;;;;;;;;;;13.05;71.96;97758.00;6304847;22;19912;-96
2021/12/28 06:22:10;;;;;;;;;;;;;;;13.21;71.75;97764.03;6303168;22;19891;-96
2021/12/28 06:24:38;;;;;;;;;;;;;;;12.94;72.81;97765.56;6302630;22;19910;-96
2021/12/28 06:32:12;;;;;;;;;;;;;;;12.54;73.37;97765.03;6278536;22;20226;-95
2021/12/28 06:50:10;;;;;;;;;;;;;;;12.06;74.21;97773.22;6260979;22;19936;-96
2021/12/28 06:52:36;;;;;;;;;;;;;;;12.19;74.46;97791.84;6302385;22;19907;-95
2021/12/28 06:55:08;;;;;;;;;;;;;;;12.16;73.39;97815.06;6296827;22;19915;-96
2021/12/28 06:57:33;;;;;;;;;;;;;;;11.83;73.29;97800.34;6296969;22;19899;-95
2021/12/28 06:59:59;;;;;;;;;;;;;;;12.39;72.12;97801.88;6270983;22;19945;-96
2021/12/28 07:02:24;;;;;;;;;;;;;;;12.53;71.34;97785.25;6294920;22;19907;-96
2021/12/28 07:04:50;;;;;;;;;;;;;;;12.66;69.97;97789.91;6273979;22;19947;-96
2021/12/28 07:07:16;;;;;;;;;;;;;;;12.61;70.30;97792.25;6302147;22;19907;-96
2021/12/28 07:09:41;;;;;;;;;;;;;;;12.53;71.21;97795.78;6304689;22;19926;-96
2021/12/28 07:12:08;;;;;;;;;;;;;;;12.28;72.19;97797.84;6278586;22;19912;-96
2021/12/28 07:14:33;;;;;;;;;;;;;;;12.23;72.74;97793.13;6271633;22;19907;-91
2021/12/28 07:19:39;;;;;;;;;;;;;;;12.61;71.58;97760.69;6274225;22;19922;-95
2021/12/28 07:22:04;;;;;;;;;;;;;;;11.97;72.72;97785.63;6272338;22;19915;-96
2021/12/28 07:27:02;;;;;;;;;;;;;;;12.33;70.76;97769.19;6272777;22;19941;-95
2021/12/28 07:29:27;;;;;;;;;;;;;;;11.80;72.03;97760.44;6271325;23;19934;-96
2021/12/28 07:31:52;;;;;;;;;;;;;;;11.88;72.27;97776.94;6270938;23;19908;-96
2021/12/28 07:34:18;;;;;;;;;;;;;;;12.09;72.09;97772.88;6270688;23;19895;-96
2021/12/28 07:36:44;;;;;;;;;;;;;;;12.45;70.16;97796.69;6275539;22;19919;-96
2021/12/28 07:39:09;;;;;;;;;;;;;;;11.98;72.50;97794.34;6272841;23;19911;-96
2021/12/28 07:44:10;;;;;;;;;;;;;;;11.88;71.97;97798.00;6283277;22;19899;-96
2021/12/28 07:46:35;;;;;;;;;;;;;;;11.22;74.17;97854.59;6302847;22;19898;-95
2021/12/28 07:49:00;;;;;;;;;;;;;;;11.56;73.26;97827.97;6300803;22;19914;-96
2021/12/28 07:53:53;;;;;;;;;;;;;;;11.24;73.61;97797.44;6271321;23;19920;-96
2021/12/28 07:56:19;;;;;;;;;;;;;;;11.44;73.11;97809.16;6269649;23;19914;-96
2021/12/28 07:58:44;;;;;;;;;;;;;;;11.73;72.11;97809.44;6271931;23;19907;-96
2021/12/28 08:01:10;;;;;;;;;;;;;;;11.84;72.19;97827.44;6272497;22;19915;-95
2021/12/28 08:03:35;;;;;;;;;;;;;;;11.85;72.17;97829.09;6247895;22;19939;-95
2021/12/28 08:08:36;;;;;;;;;;;;;;;12.00;71.75;97837.88;6272031;22;19922;-95
2021/12/28 08:11:02;;;;;;;;;;;;;;;11.89;72.70;97847.00;6271776;22;19922;-95
2021/12/28 08:13:28;;;;;;;;;;;;;;;12.13;71.63;97855.69;6273223;22;19915;-96
2021/12/28 08:26:16;;;;;;;;;;;;;;;11.62;69.80;97843.03;6242795;22;19965;-95
2021/12/28 08:28:42;;;;;;;;;;;;;;;11.56;70.45;97858.69;6276926;22;19899;-96
2021/12/28 08:31:08;;;;;;;;;;;;;;;11.94;69.89;97862.25;6304783;22;19918;-95
2021/12/28 08:36:08;;;;;;;;;;;;;;;11.52;70.96;97856.38;6248235;22;19963;-95
2021/12/28 08:56:46;;;;;;;;;;;;;;;11.93;72.53;97857.16;6253176;22;19907;-95
2021/12/28 09:17:19;;;;;;;;;;;;;;;11.86;74.13;97915.66;6255782;22;19913;-95
2021/12/28 09:19:44;;;;;;;;;;;;;;;12.28;72.75;97917.09;6306169;22;19922;-94
